Heinz Schepers — V2OM7 — position and weather

sailwx.info

Track history (hours):
 
Tides and Currents Weather Stations Pressure Air Temp Water Temp Dewpoint Dewpoint Depression Visibility Wind Speed Wind Dir Waves Ship Positions

Heinz Schepers

Last reported at 2014-Sep-16 17:32 UTC. Time now 2014-Sep-18 23:50 UTC.
Position N 34°42' E 032°18'.

Length 101 m; draft 5 m.

Type: Cargo ship. MMSI: 304596000.

Date/timePositionNaut miles runAvg speedWind from/ knotsBaromVisibWave heightAir tempDewpointWater temp
2014-Sep-16 17:32N 34°42' E 032°18'1313.0
2014-Sep-16 16:34N 34°37' E 032°33'1313.4
2014-Sep-16 15:33N 34°33' E 032°48'1212.1
2014-Sep-16 14:33N 34°33' E 033°03'7 6.3
2014-Sep-16 13:31N 34°39' E 033°01'0 0.0
2014-Sep-16 12:25N 34°39' E 033°01'0 0.0
2014-Sep-16 11:31N 34°39' E 033°01'0 0.0
2014-Sep-16 10:31N 34°39' E 033°01'0 0.0
2014-Sep-16 09:31N 34°39' E 033°01'0 0.0
2014-Sep-16 08:34N 34°39' E 033°01'0 0.0
2014-Sep-16 07:34N 34°39' E 033°01'0 0.0
2014-Sep-16 06:33N 34°39' E 033°01'0 0.0
2014-Sep-16 05:33N 34°39' E 033°01'0 0.0
2014-Sep-16 04:33N 34°39' E 033°01'2 1.6
2014-Sep-16 03:33N 34°39' E 033°03'4 4.0
2014-Sep-16 02:33N 34°35' E 033°04'1111.0
2014-Sep-16 01:33N 34°32' E 032°51'1312.8
2014-Sep-16 00:33N 34°36' E 032°36'26811.5
2014-Sep-15 01:17N 36°33' E 027°39'1013.7
2014-Sep-15 00:33N 36°37' E 027°28'1010.3
2014-Sep-14 23:33N 36°45' E 027°20'1110.8
2014-Sep-14 22:32N 36°56' E 027°18'1313.5
2014-Sep-14 21:33N 37°03' E 027°03'1313.5
2014-Sep-14 20:33N 37°14' E 026°55'1413.7
2014-Sep-14 19:33N 37°26' E 026°46'1614.2
2014-Sep-14 18:24N 37°40' E 026°34'1214.0
2014-Sep-14 17:34N 37°46' E 026°22'3013.6
2014-Sep-14 15:20N 38°02' E 025°49'1012.6
2014-Sep-14 14:33N 38°07' E 025°38'1312.7
2014-Sep-14 13:33N 38°14' E 025°24'1313.1
2014-Sep-14 12:33N 38°20' E 025°10'1413.3
2014-Sep-14 11:29N 38°28' E 024°54'  
2014-Sep-11 07:25N 38°28' E 024°54'4114.2
2014-Sep-11 04:33N 38°07' E 025°38'4313.7
2014-Sep-11 01:23N 37°45' E 026°25'2713.0
2014-Sep-10 23:17N 37°24' E 026°48'31812.8
2014-Sep-09 22:27N 34°39' E 032°24'1213.0
2014-Sep-09 21:33N 34°36' E 032°38'1413.6
2014-Sep-09 20:33N 34°32' E 032°54'10 9.8
2014-Sep-09 19:33N 34°38' E 033°03'2 2.1
2014-Sep-09 18:32N 34°39' E 033°01'0 0.0
2014-Sep-09 17:32N 34°39' E 033°01'0 0.0
2014-Sep-09 16:32N 34°39' E 033°01'0 0.0
2014-Sep-09 15:32N 34°39' E 033°01'0 0.0
2014-Sep-09 13:31N 34°39' E 033°01'0 0.0
2014-Sep-09 12:31N 34°39' E 033°01'0 0.0
2014-Sep-09 11:31N 34°39' E 033°01'0 0.0
2014-Sep-09 10:31N 34°39' E 033°01'0 0.0
2014-Sep-09 09:31N 34°39' E 033°01'0 0.0
2014-Sep-09 08:31N 34°39' E 033°01'0 0.0
2014-Sep-09 07:13N 34°39' E 033°01'0 0.0
2014-Sep-09 06:31N 34°39' E 033°01'0 0.0
2014-Sep-09 05:31N 34°39' E 033°01'0 0.0
2014-Sep-09 04:31N 34°39' E 033°01'2 1.8
2014-Sep-09 03:33N 34°39' E 033°03'4 3.7
2014-Sep-09 02:33N 34°35' E 033°04'1010.1
2014-Sep-09 01:33N 34°32' E 032°52'1212.5
2014-Sep-09 00:33N 34°35' E 032°37'32610.8
2014-Sep-07 18:21N 37°21' E 026°50'2513.7
2014-Sep-07 16:31N 37°42' E 026°32'5713.4
2014-Sep-07 12:16N 38°11' E 025°30'  
Track history (hours):
 
Tides and Currents Weather Stations Pressure Air Temp Water Temp Dewpoint Dewpoint Depression Visibility Wind Speed Wind Dir Waves Ship Positions

Heinz Schepers

Last reported at 2014-Sep-16 17:32 UTC. Time now 2014-Sep-18 23:50 UTC.
Position N 34°42' E 032°18'.

Length 101 m; draft 5 m.

Type: Cargo ship. MMSI: 304596000.

Date/timePositionNaut miles runAvg speedWind from/ knotsBaromVisibWave heightAir tempDewpointWater temp
2014-Sep-16 17:32N 34°42' E 032°18'1313.0
2014-Sep-16 16:34N 34°37' E 032°33'1313.4
2014-Sep-16 15:33N 34°33' E 032°48'1212.1
2014-Sep-16 14:33N 34°33' E 033°03'7 6.3
2014-Sep-16 13:31N 34°39' E 033°01'0 0.0
2014-Sep-16 12:25N 34°39' E 033°01'0 0.0
2014-Sep-16 11:31N 34°39' E 033°01'0 0.0
2014-Sep-16 10:31N 34°39' E 033°01'0 0.0
2014-Sep-16 09:31N 34°39' E 033°01'0 0.0
2014-Sep-16 08:34N 34°39' E 033°01'0 0.0
2014-Sep-16 07:34N 34°39' E 033°01'0 0.0
2014-Sep-16 06:33N 34°39' E 033°01'0 0.0
2014-Sep-16 05:33N 34°39' E 033°01'0 0.0
2014-Sep-16 04:33N 34°39' E 033°01'2 1.6
2014-Sep-16 03:33N 34°39' E 033°03'4 4.0
2014-Sep-16 02:33N 34°35' E 033°04'1111.0
2014-Sep-16 01:33N 34°32' E 032°51'1312.8
2014-Sep-16 00:33N 34°36' E 032°36'26811.5
2014-Sep-15 01:17N 36°33' E 027°39'1013.7
2014-Sep-15 00:33N 36°37' E 027°28'1010.3
2014-Sep-14 23:33N 36°45' E 027°20'1110.8
2014-Sep-14 22:32N 36°56' E 027°18'1313.5
2014-Sep-14 21:33N 37°03' E 027°03'1313.5
2014-Sep-14 20:33N 37°14' E 026°55'1413.7
2014-Sep-14 19:33N 37°26' E 026°46'1614.2
2014-Sep-14 18:24N 37°40' E 026°34'1214.0
2014-Sep-14 17:34N 37°46' E 026°22'3013.6
2014-Sep-14 15:20N 38°02' E 025°49'1012.6
2014-Sep-14 14:33N 38°07' E 025°38'1312.7
2014-Sep-14 13:33N 38°14' E 025°24'1313.1
2014-Sep-14 12:33N 38°20' E 025°10'1413.3
2014-Sep-14 11:29N 38°28' E 024°54'  
2014-Sep-11 07:25N 38°28' E 024°54'4114.2
2014-Sep-11 04:33N 38°07' E 025°38'4313.7
2014-Sep-11 01:23N 37°45' E 026°25'2713.0
2014-Sep-10 23:17N 37°24' E 026°48'31812.8
2014-Sep-09 22:27N 34°39' E 032°24'1213.0
2014-Sep-09 21:33N 34°36' E 032°38'1413.6
2014-Sep-09 20:33N 34°32' E 032°54'10 9.8
2014-Sep-09 19:33N 34°38' E 033°03'2 2.1
2014-Sep-09 18:32N 34°39' E 033°01'0 0.0
2014-Sep-09 17:32N 34°39' E 033°01'0 0.0
2014-Sep-09 16:32N 34°39' E 033°01'0 0.0
2014-Sep-09 15:32N 34°39' E 033°01'0 0.0
2014-Sep-09 13:31N 34°39' E 033°01'0 0.0
2014-Sep-09 12:31N 34°39' E 033°01'0 0.0
2014-Sep-09 11:31N 34°39' E 033°01'0 0.0
2014-Sep-09 10:31N 34°39' E 033°01'0 0.0
2014-Sep-09 09:31N 34°39' E 033°01'0 0.0
2014-Sep-09 08:31N 34°39' E 033°01'0 0.0
2014-Sep-09 07:13N 34°39' E 033°01'0 0.0
2014-Sep-09 06:31N 34°39' E 033°01'0 0.0
2014-Sep-09 05:31N 34°39' E 033°01'0 0.0
2014-Sep-09 04:31N 34°39' E 033°01'2 1.8
2014-Sep-09 03:33N 34°39' E 033°03'4 3.7
2014-Sep-09 02:33N 34°35' E 033°04'1010.1
2014-Sep-09 01:33N 34°32' E 032°52'1212.5
2014-Sep-09 00:33N 34°35' E 032°37'32610.8
2014-Sep-07 18:21N 37°21' E 026°50'2513.7
2014-Sep-07 16:31N 37°42' E 026°32'5713.4
2014-Sep-07 12:16N 38°11' E 025°30'  

Dump ship's entire track history